sensor_id;sensor_type;location;lat;lon;timestamp;temperature;humidity
8248;DHT22;4164;49.844;8.830;2023-12-28T00:00:27;5.50;99.90
8248;DHT22;4164;49.844;8.830;2023-12-28T00:02:52;5.50;99.90
8248;DHT22;4164;49.844;8.830;2023-12-28T00:05:18;5.40;99.90
8248;DHT22;4164;49.844;8.830;2023-12-28T00:07:46;5.30;99.90
8248;DHT22;4164;49.844;8.830;2023-12-28T00:10:12;5.40;99.90
8248;DHT22;4164;49.844;8.830;2023-12-28T00:12:37;6.20;99.90
8248;DHT22;4164;49.844;8.830;2023-12-28T00:15:03;7.00;99.90
8248;DHT22;4164;49.844;8.830;2023-12-28T00:17:29;7.50;99.90
8248;DHT22;4164;49.844;8.830;2023-12-28T00:19:54;7.70;99.90
8248;DHT22;4164;49.844;8.830;2023-12-28T00:22:20;7.80;99.90
8248;DHT22;4164;49.844;8.830;2023-12-28T00:24:45;7.90;99.90
8248;DHT22;4164;49.844;8.830;2023-12-28T00:27:11;8.00;99.90
8248;DHT22;4164;49.844;8.830;2023-12-28T00:29:39;8.10;99.90
8248;DHT22;4164;49.844;8.830;2023-12-28T00:32:06;8.20;99.90
8248;DHT22;4164;49.844;8.830;2023-12-28T00:34:32;8.20;99.90
8248;DHT22;4164;49.844;8.830;2023-12-28T00:36:57;8.20;99.90
8248;DHT22;4164;49.844;8.830;2023-12-28T00:39:23;8.20;99.90
8248;DHT22;4164;49.844;8.830;2023-12-28T00:41:48;8.30;99.90
8248;DHT22;4164;49.844;8.830;2023-12-28T00:44:14;8.40;99.90
8248;DHT22;4164;49.844;8.830;2023-12-28T00:46:43;8.50;99.90
8248;DHT22;4164;49.844;8.830;2023-12-28T00:49:08;8.60;99.90
8248;DHT22;4164;49.844;8.830;2023-12-28T00:51:34;8.70;99.90
8248;DHT22;4164;49.844;8.830;2023-12-28T00:54:00;8.70;99.90
8248;DHT22;4164;49.844;8.830;2023-12-28T00:56:25;8.70;99.90
8248;DHT22;4164;49.844;8.830;2023-12-28T00:58:51;8.80;99.90
8248;DHT22;4164;49.844;8.830;2023-12-28T01:01:16;8.90;99.90
8248;DHT22;4164;49.844;8.830;2023-12-28T01:03:42;9.00;99.90
8248;DHT22;4164;49.844;8.830;2023-12-28T01:06:07;9.10;99.90
8248;DHT22;4164;49.844;8.830;2023-12-28T01:08:33;9.10;99.90
8248;DHT22;4164;49.844;8.830;2023-12-28T01:11:02;9.20;99.90
8248;DHT22;4164;49.844;8.830;2023-12-28T01:13:28;9.20;99.90
8248;DHT22;4164;49.844;8.830;2023-12-28T01:15:53;9.20;99.90
8248;DHT22;4164;49.844;8.830;2023-12-28T01:18:19;9.10;99.90
8248;DHT22;4164;49.844;8.830;2023-12-28T01:20:45;9.10;99.90
8248;DHT22;4164;49.844;8.830;2023-12-28T01:23:11;9.20;99.90
8248;DHT22;4164;49.844;8.830;2023-12-28T01:25:36;9.30;99.90
8248;DHT22;4164;49.844;8.830;2023-12-28T01:28:02;9.40;99.90
8248;DHT22;4164;49.844;8.830;2023-12-28T01:30:28;9.50;99.90
8248;DHT22;4164;49.844;8.830;2023-12-28T01:32:53;9.70;99.90
8248;DHT22;4164;49.844;8.830;2023-12-28T01:35:19;9.70;99.90
8248;DHT22;4164;49.844;8.830;2023-12-28T01:37:45;9.70;99.90
8248;DHT22;4164;49.844;8.830;2023-12-28T01:40:11;9.80;99.90
8248;DHT22;4164;49.844;8.830;2023-12-28T01:42:36;9.80;99.90
8248;DHT22;4164;49.844;8.830;2023-12-28T01:45:05;9.90;99.90
8248;DHT22;4164;49.844;8.830;2023-12-28T01:47:31;9.90;99.90
8248;DHT22;4164;49.844;8.830;2023-12-28T01:49:57;9.90;99.90
8248;DHT22;4164;49.844;8.830;2023-12-28T01:52:24;9.90;99.90
8248;DHT22;4164;49.844;8.830;2023-12-28T01:54:49;10.00;99.90
8248;DHT22;4164;49.844;8.830;2023-12-28T01:57:15;10.00;99.90
8248;DHT22;4164;49.844;8.830;2023-12-28T01:59:42;10.10;99.90
8248;DHT22;4164;49.844;8.830;2023-12-28T02:02:08;10.10;99.90
8248;DHT22;4164;49.844;8.830;2023-12-28T02:04:35;10.10;99.90
8248;DHT22;4164;49.844;8.830;2023-12-28T02:07:01;10.20;99.90
8248;DHT22;4164;49.844;8.830;2023-12-28T02:09:26;10.20;99.90
8248;DHT22;4164;49.844;8.830;2023-12-28T02:11:55;10.20;99.90
8248;DHT22;4164;49.844;8.830;2023-12-28T02:14:21;10.10;99.90
8248;DHT22;4164;49.844;8.830;2023-12-28T02:19:31;10.10;99.90
8248;DHT22;4164;49.844;8.830;2023-12-28T02:21:59;10.10;99.90
8248;DHT22;4164;49.844;8.830;2023-12-28T02:24:24;10.10;99.90
8248;DHT22;4164;49.844;8.830;2023-12-28T02:26:53;10.10;99.90
8248;DHT22;4164;49.844;8.830;2023-12-28T02:29:18;10.10;99.90
8248;DHT22;4164;49.844;8.830;2023-12-28T02:32:01;10.20;99.90
8248;DHT22;4164;49.844;8.830;2023-12-28T02:34:33;10.20;99.90
8248;DHT22;4164;49.844;8.830;2023-12-28T02:37:01;10.10;99.90
8248;DHT22;4164;49.844;8.830;2023-12-28T02:39:27;10.10;99.90
8248;DHT22;4164;49.844;8.830;2023-12-28T02:41:55;10.10;99.90
8248;DHT22;4164;49.844;8.830;2023-12-28T02:44:21;10.10;99.90
8248;DHT22;4164;49.844;8.830;2023-12-28T02:46:46;10.20;99.90
8248;DHT22;4164;49.844;8.830;2023-12-28T02:49:18;10.20;99.90
8248;DHT22;4164;49.844;8.830;2023-12-28T02:51:43;10.10;99.90
8248;DHT22;4164;49.844;8.830;2023-12-28T02:54:09;9.90;99.90
8248;DHT22;4164;49.844;8.830;2023-12-28T02:56:34;9.80;99.90
8248;DHT22;4164;49.844;8.830;2023-12-28T02:59:00;9.70;99.90
8248;DHT22;4164;49.844;8.830;2023-12-28T03:01:26;9.70;99.90
8248;DHT22;4164;49.844;8.830;2023-12-28T03:03:51;9.70;99.90
8248;DHT22;4164;49.844;8.830;2023-12-28T03:06:17;9.70;99.90
8248;DHT22;4164;49.844;8.830;2023-12-28T03:08:42;9.80;99.90
8248;DHT22;4164;49.844;8.830;2023-12-28T03:11:10;9.70;99.90
8248;DHT22;4164;49.844;8.830;2023-12-28T03:13:36;9.80;99.90
8248;DHT22;4164;49.844;8.830;2023-12-28T03:16:02;9.70;99.90
8248;DHT22;4164;49.844;8.830;2023-12-28T03:18:27;9.70;99.90
8248;DHT22;4164;49.844;8.830;2023-12-28T03:20:53;9.70;99.90
8248;DHT22;4164;49.844;8.830;2023-12-28T03:23:18;9.70;99.90
8248;DHT22;4164;49.844;8.830;2023-12-28T03:25:44;9.70;99.90
8248;DHT22;4164;49.844;8.830;2023-12-28T03:28:09;9.70;99.90
8248;DHT22;4164;49.844;8.830;2023-12-28T03:30:35;9.80;99.90
8248;DHT22;4164;49.844;8.830;2023-12-28T03:33:00;9.80;99.90
8248;DHT22;4164;49.844;8.830;2023-12-28T03:35:26;9.70;99.90
8248;DHT22;4164;49.844;8.830;2023-12-28T03:37:51;9.70;99.90
8248;DHT22;4164;49.844;8.830;2023-12-28T03:40:17;9.70;99.90
8248;DHT22;4164;49.844;8.830;2023-12-28T03:42:42;9.70;99.90
8248;DHT22;4164;49.844;8.830;2023-12-28T03:45:09;9.70;99.90
8248;DHT22;4164;49.844;8.830;2023-12-28T03:47:35;9.70;99.90
8248;DHT22;4164;49.844;8.830;2023-12-28T03:50:00;9.50;99.90
8248;DHT22;4164;49.844;8.830;2023-12-28T03:52:26;9.10;1.00
8248;DHT22;4164;49.844;8.830;2023-12-28T03:54:52;8.90;1.00
8248;DHT22;4164;49.844;8.830;2023-12-28T03:57:18;8.90;1.00
8248;DHT22;4164;49.844;8.830;2023-12-28T03:59:43;8.80;1.00
8248;DHT22;4164;49.844;8.830;2023-12-28T04:02:09;8.60;1.00
8248;DHT22;4164;49.844;8.830;2023-12-28T04:04:34;8.80;1.00
8248;DHT22;4164;49.844;8.830;2023-12-28T04:07:00;8.80;1.00
8248;DHT22;4164;49.844;8.830;2023-12-28T04:09:25;8.80;1.00
8248;DHT22;4164;49.844;8.830;2023-12-28T04:11:51;8.60;1.00
8248;DHT22;4164;49.844;8.830;2023-12-28T04:14:16;8.50;1.00
8248;DHT22;4164;49.844;8.830;2023-12-28T04:16:42;8.50;1.00
8248;DHT22;4164;49.844;8.830;2023-12-28T04:19:08;8.40;1.00
8248;DHT22;4164;49.844;8.830;2023-12-28T04:21:33;8.40;1.00
8248;DHT22;4164;49.844;8.830;2023-12-28T04:23:59;8.30;1.00
8248;DHT22;4164;49.844;8.830;2023-12-28T04:26:24;8.30;1.00
8248;DHT22;4164;49.844;8.830;2023-12-28T04:28:50;8.40;1.00
8248;DHT22;4164;49.844;8.830;2023-12-28T04:31:15;8.40;1.00
8248;DHT22;4164;49.844;8.830;2023-12-28T04:33:41;8.50;1.00
8248;DHT22;4164;49.844;8.830;2023-12-28T04:36:07;8.60;1.00
8248;DHT22;4164;49.844;8.830;2023-12-28T04:38:33;8.70;1.00
8248;DHT22;4164;49.844;8.830;2023-12-28T04:40:59;8.80;1.00
8248;DHT22;4164;49.844;8.830;2023-12-28T04:43:25;8.70;1.00
8248;DHT22;4164;49.844;8.830;2023-12-28T04:45:51;8.80;1.00
8248;DHT22;4164;49.844;8.830;2023-12-28T04:48:16;8.90;1.00
8248;DHT22;4164;49.844;8.830;2023-12-28T04:50:49;8.90;1.00
8248;DHT22;4164;49.844;8.830;2023-12-28T04:53:15;8.90;1.00
8248;DHT22;4164;49.844;8.830;2023-12-28T04:55:41;9.00;1.00
8248;DHT22;4164;49.844;8.830;2023-12-28T04:58:06;9.00;1.00
8248;DHT22;4164;49.844;8.830;2023-12-28T05:00:32;8.90;1.00
8248;DHT22;4164;49.844;8.830;2023-12-28T05:02:57;8.80;1.00
8248;DHT22;4164;49.844;8.830;2023-12-28T05:05:23;8.70;1.00
8248;DHT22;4164;49.844;8.830;2023-12-28T05:07:48;8.70;1.00
8248;DHT22;4164;49.844;8.830;2023-12-28T05:10:14;8.70;1.00
8248;DHT22;4164;49.844;8.830;2023-12-28T05:12:39;8.70;1.00
8248;DHT22;4164;49.844;8.830;2023-12-28T05:15:05;8.70;1.00
8248;DHT22;4164;49.844;8.830;2023-12-28T05:17:31;8.80;1.00
8248;DHT22;4164;49.844;8.830;2023-12-28T05:19:56;8.90;1.00
8248;DHT22;4164;49.844;8.830;2023-12-28T05:22:22;8.90;1.00
8248;DHT22;4164;49.844;8.830;2023-12-28T05:24:47;9.00;1.00
8248;DHT22;4164;49.844;8.830;2023-12-28T05:27:13;9.00;1.00
8248;DHT22;4164;49.844;8.830;2023-12-28T05:29:38;9.00;1.00
8248;DHT22;4164;49.844;8.830;2023-12-28T05:32:07;9.00;1.00
8248;DHT22;4164;49.844;8.830;2023-12-28T05:34:33;9.10;1.00
8248;DHT22;4164;49.844;8.830;2023-12-28T05:36:58;9.10;1.00
8248;DHT22;4164;49.844;8.830;2023-12-28T05:39:24;9.10;1.00
8248;DHT22;4164;49.844;8.830;2023-12-28T05:41:49;9.10;1.00
8248;DHT22;4164;49.844;8.830;2023-12-28T05:44:16;9.10;1.00
8248;DHT22;4164;49.844;8.830;2023-12-28T05:46:42;9.00;1.00
8248;DHT22;4164;49.844;8.830;2023-12-28T05:49:08;9.00;1.00
8248;DHT22;4164;49.844;8.830;2023-12-28T05:51:40;8.90;1.00
8248;DHT22;4164;49.844;8.830;2023-12-28T05:54:07;8.90;1.00
8248;DHT22;4164;49.844;8.830;2023-12-28T05:56:32;8.90;1.00
8248;DHT22;4164;49.844;8.830;2023-12-28T05:58:58;8.90;1.00
8248;DHT22;4164;49.844;8.830;2023-12-28T06:01:24;8.90;1.00
8248;DHT22;4164;49.844;8.830;2023-12-28T06:03:49;8.90;1.00
8248;DHT22;4164;49.844;8.830;2023-12-28T06:06:15;8.90;1.00
8248;DHT22;4164;49.844;8.830;2023-12-28T06:08:45;8.90;1.00
8248;DHT22;4164;49.844;8.830;2023-12-28T06:11:10;9.00;1.00
8248;DHT22;4164;49.844;8.830;2023-12-28T06:13:42;9.00;1.00
8248;DHT22;4164;49.844;8.830;2023-12-28T06:16:08;9.10;1.00
8248;DHT22;4164;49.844;8.830;2023-12-28T06:18:37;9.10;1.00
8248;DHT22;4164;49.844;8.830;2023-12-28T06:21:02;9.00;1.00
8248;DHT22;4164;49.844;8.830;2023-12-28T06:23:31;9.00;1.00
8248;DHT22;4164;49.844;8.830;2023-12-28T06:26:04;9.00;1.00
8248;DHT22;4164;49.844;8.830;2023-12-28T06:28:30;9.00;1.00
8248;DHT22;4164;49.844;8.830;2023-12-28T06:30:57;9.00;1.00
8248;DHT22;4164;49.844;8.830;2023-12-28T06:33:28;9.00;1.00
8248;DHT22;4164;49.844;8.830;2023-12-28T06:35:54;9.10;1.00
8248;DHT22;4164;49.844;8.830;2023-12-28T06:38:20;9.00;1.00
8248;DHT22;4164;49.844;8.830;2023-12-28T06:40:45;9.10;1.00
8248;DHT22;4164;49.844;8.830;2023-12-28T06:43:11;9.10;1.00
8248;DHT22;4164;49.844;8.830;2023-12-28T06:45:40;9.10;1.00
8248;DHT22;4164;49.844;8.830;2023-12-28T06:48:06;9.10;1.00
8248;DHT22;4164;49.844;8.830;2023-12-28T06:50:32;9.10;1.00
8248;DHT22;4164;49.844;8.830;2023-12-28T06:52:57;9.10;1.00
8248;DHT22;4164;49.844;8.830;2023-12-28T06:55:23;9.10;1.00
8248;DHT22;4164;49.844;8.830;2023-12-28T06:57:48;9.10;1.00
8248;DHT22;4164;49.844;8.830;2023-12-28T07:00:14;9.10;1.00
8248;DHT22;4164;49.844;8.830;2023-12-28T07:02:40;9.10;1.00
8248;DHT22;4164;49.844;8.830;2023-12-28T07:05:05;9.10;1.00
8248;DHT22;4164;49.844;8.830;2023-12-28T07:07:31;9.10;1.00
8248;DHT22;4164;49.844;8.830;2023-12-28T07:09:57;9.10;1.00
8248;DHT22;4164;49.844;8.830;2023-12-28T07:12:23;9.10;1.00
8248;DHT22;4164;49.844;8.830;2023-12-28T07:14:49;9.10;1.00
8248;DHT22;4164;49.844;8.830;2023-12-28T07:17:14;9.10;1.00
8248;DHT22;4164;49.844;8.830;2023-12-28T07:19:43;9.10;1.00
8248;DHT22;4164;49.844;8.830;2023-12-28T07:22:11;9.10;1.00
8248;DHT22;4164;49.844;8.830;2023-12-28T07:24:37;9.10;1.00
8248;DHT22;4164;49.844;8.830;2023-12-28T07:27:02;9.10;1.00
8248;DHT22;4164;49.844;8.830;2023-12-28T07:29:28;9.10;1.00
8248;DHT22;4164;49.844;8.830;2023-12-28T07:31:54;9.10;1.00
8248;DHT22;4164;49.844;8.830;2023-12-28T07:34:19;9.20;1.00
8248;DHT22;4164;49.844;8.830;2023-12-28T07:36:45;9.10;1.00
8248;DHT22;4164;49.844;8.830;2023-12-28T07:39:11;9.20;1.00
8248;DHT22;4164;49.844;8.830;2023-12-28T07:41:36;9.20;1.00
8248;DHT22;4164;49.844;8.830;2023-12-28T07:44:02;9.20;1.00
8248;DHT22;4164;49.844;8.830;2023-12-28T07:46:27;9.20;1.00
8248;DHT22;4164;49.844;8.830;2023-12-28T07:48:53;9.20;1.00
8248;DHT22;4164;49.844;8.830;2023-12-28T07:51:18;9.30;1.00
8248;DHT22;4164;49.844;8.830;2023-12-28T07:53:44;9.30;1.00
8248;DHT22;4164;49.844;8.830;2023-12-28T07:56:12;9.30;1.00
8248;DHT22;4164;49.844;8.830;2023-12-28T07:58:38;10.40;1.00
8248;DHT22;4164;49.844;8.830;2023-12-28T08:01:12;9.30;1.00
8248;DHT22;4164;49.844;8.830;2023-12-28T08:03:37;9.80;1.00
8248;DHT22;4164;49.844;8.830;2023-12-28T08:06:03;9.40;1.00
8248;DHT22;4164;49.844;8.830;2023-12-28T08:08:29;9.40;1.00
8248;DHT22;4164;49.844;8.830;2023-12-28T08:10:54;9.40;1.00
8248;DHT22;4164;49.844;8.830;2023-12-28T08:13:20;9.40;1.00
8248;DHT22;4164;49.844;8.830;2023-12-28T08:15:45;9.40;1.00
8248;DHT22;4164;49.844;8.830;2023-12-28T08:18:12;9.50;1.00
8248;DHT22;4164;49.844;8.830;2023-12-28T08:20:37;9.50;1.00
8248;DHT22;4164;49.844;8.830;2023-12-28T08:23:03;9.50;1.00
8248;DHT22;4164;49.844;8.830;2023-12-28T08:25:28;9.50;1.00
8248;DHT22;4164;49.844;8.830;2023-12-28T08:27:54;9.50;1.00
8248;DHT22;4164;49.844;8.830;2023-12-28T08:30:19;9.50;1.00
8248;DHT22;4164;49.844;8.830;2023-12-28T08:32:45;9.50;1.00
8248;DHT22;4164;49.844;8.830;2023-12-28T08:35:10;9.60;1.00
8248;DHT22;4164;49.844;8.830;2023-12-28T08:37:36;9.60;1.00
8248;DHT22;4164;49.844;8.830;2023-12-28T08:40:01;9.60;1.00
8248;DHT22;4164;49.844;8.830;2023-12-28T08:42:32;9.70;1.00
8248;DHT22;4164;49.844;8.830;2023-12-28T08:44:57;9.70;1.00
8248;DHT22;4164;49.844;8.830;2023-12-28T08:47:23;9.70;1.00
8248;DHT22;4164;49.844;8.830;2023-12-28T08:49:49;9.80;1.00
8248;DHT22;4164;49.844;8.830;2023-12-28T08:52:15;9.80;1.00
8248;DHT22;4164;49.844;8.830;2023-12-28T08:54:40;9.80;1.00
8248;DHT22;4164;49.844;8.830;2023-12-28T08:57:06;9.80;1.00
8248;DHT22;4164;49.844;8.830;2023-12-28T08:59:36;9.80;1.00
8248;DHT22;4164;49.844;8.830;2023-12-28T09:02:04;9.70;1.00
8248;DHT22;4164;49.844;8.830;2023-12-28T09:04:30;9.70;1.00
8248;DHT22;4164;49.844;8.830;2023-12-28T09:06:55;9.70;1.00
8248;DHT22;4164;49.844;8.830;2023-12-28T09:09:21;9.70;1.00
8248;DHT22;4164;49.844;8.830;2023-12-28T09:11:47;9.70;1.00
8248;DHT22;4164;49.844;8.830;2023-12-28T09:14:15;9.60;1.00
8248;DHT22;4164;49.844;8.830;2023-12-28T09:16:41;9.60;1.00
8248;DHT22;4164;49.844;8.830;2023-12-28T09:19:07;9.50;1.00
8248;DHT22;4164;49.844;8.830;2023-12-28T09:21:34;9.60;1.00
8248;DHT22;4164;49.844;8.830;2023-12-28T09:23:59;9.60;1.00
8248;DHT22;4164;49.844;8.830;2023-12-28T09:26:25;9.60;1.00
8248;DHT22;4164;49.844;8.830;2023-12-28T09:28:53;9.60;1.00
8248;DHT22;4164;49.844;8.830;2023-12-28T09:31:20;9.70;1.00
8248;DHT22;4164;49.844;8.830;2023-12-28T09:33:46;9.60;1.00
8248;DHT22;4164;49.844;8.830;2023-12-28T09:36:11;9.70;1.00
8248;DHT22;4164;49.844;8.830;2023-12-28T09:38:40;9.80;1.00
8248;DHT22;4164;49.844;8.830;2023-12-28T09:41:13;10.00;1.00
8248;DHT22;4164;49.844;8.830;2023-12-28T09:43:51;10.00;1.00
8248;DHT22;4164;49.844;8.830;2023-12-28T09:46:18;10.00;1.00
8248;DHT22;4164;49.844;8.830;2023-12-28T09:48:44;10.00;1.00
8248;DHT22;4164;49.844;8.830;2023-12-28T09:51:10;10.10;1.00
8248;DHT22;4164;49.844;8.830;2023-12-28T09:53:36;10.30;1.00
8248;DHT22;4164;49.844;8.830;2023-12-28T09:56:02;10.40;1.00
8248;DHT22;4164;49.844;8.830;2023-12-28T09:58:33;10.30;1.00
8248;DHT22;4164;49.844;8.830;2023-12-28T10:01:01;10.40;1.00
8248;DHT22;4164;49.844;8.830;2023-12-28T10:03:27;10.40;1.00
8248;DHT22;4164;49.844;8.830;2023-12-28T10:05:52;10.60;1.00
8248;DHT22;4164;49.844;8.830;2023-12-28T10:08:18;10.90;1.00
8248;DHT22;4164;49.844;8.830;2023-12-28T10:10:44;10.90;1.00
8248;DHT22;4164;49.844;8.830;2023-12-28T10:13:16;11.20;1.00
8248;DHT22;4164;49.844;8.830;2023-12-28T10:15:43;11.40;1.00
8248;DHT22;4164;49.844;8.830;2023-12-28T10:18:09;11.60;1.00
8248;DHT22;4164;49.844;8.830;2023-12-28T10:20:34;12.60;1.00
8248;DHT22;4164;49.844;8.830;2023-12-28T10:23:03;13.20;1.00
8248;DHT22;4164;49.844;8.830;2023-12-28T10:25:30;13.30;1.00
8248;DHT22;4164;49.844;8.830;2023-12-28T10:27:56;12.50;1.00
8248;DHT22;4164;49.844;8.830;2023-12-28T10:30:22;11.70;1.00
8248;DHT22;4164;49.844;8.830;2023-12-28T10:32:48;11.20;1.00
8248;DHT22;4164;49.844;8.830;2023-12-28T10:35:14;11.50;1.00
8248;DHT22;4164;49.844;8.830;2023-12-28T10:37:40;11.50;1.00
8248;DHT22;4164;49.844;8.830;2023-12-28T10:40:14;11.00;1.00
8248;DHT22;4164;49.844;8.830;2023-12-28T10:42:54;11.00;1.00
8248;DHT22;4164;49.844;8.830;2023-12-28T10:45:23;11.10;1.00
8248;DHT22;4164;49.844;8.830;2023-12-28T10:48:05;11.10;1.00
8248;DHT22;4164;49.844;8.830;2023-12-28T10:50:41;10.60;1.00
8248;DHT22;4164;49.844;8.830;2023-12-28T10:56:35;10.30;1.00
8248;DHT22;4164;49.844;8.830;2023-12-28T11:01:40;10.20;1.00
8248;DHT22;4164;49.844;8.830;2023-12-28T11:04:17;10.20;1.00
8248;DHT22;4164;49.844;8.830;2023-12-28T11:06:48;10.30;1.00
8248;DHT22;4164;49.844;8.830;2023-12-28T11:09:15;10.50;1.00
8248;DHT22;4164;49.844;8.830;2023-12-28T11:11:43;10.50;1.00
8248;DHT22;4164;49.844;8.830;2023-12-28T11:14:09;10.70;1.00
8248;DHT22;4164;49.844;8.830;2023-12-28T11:16:37;10.80;1.00
8248;DHT22;4164;49.844;8.830;2023-12-28T11:19:04;10.60;1.00
8248;DHT22;4164;49.844;8.830;2023-12-28T11:21:31;10.60;1.00
8248;DHT22;4164;49.844;8.830;2023-12-28T11:23:58;10.70;1.00
8248;DHT22;4164;49.844;8.830;2023-12-28T11:26:24;10.80;1.00
8248;DHT22;4164;49.844;8.830;2023-12-28T11:28:49;10.90;1.00
8248;DHT22;4164;49.844;8.830;2023-12-28T11:31:16;11.40;1.00
8248;DHT22;4164;49.844;8.830;2023-12-28T11:33:50;11.30;1.00
8248;DHT22;4164;49.844;8.830;2023-12-28T11:36:26;11.10;1.00
8248;DHT22;4164;49.844;8.830;2023-12-28T11:39:02;10.90;1.00
8248;DHT22;4164;49.844;8.830;2023-12-28T11:41:31;11.00;1.00
8248;DHT22;4164;49.844;8.830;2023-12-28T11:43:57;11.10;1.00
8248;DHT22;4164;49.844;8.830;2023-12-28T11:46:22;11.20;1.00
8248;DHT22;4164;49.844;8.830;2023-12-28T11:48:48;11.40;1.00
8248;DHT22;4164;49.844;8.830;2023-12-28T11:51:14;11.80;1.00
8248;DHT22;4164;49.844;8.830;2023-12-28T11:53:41;11.50;1.00
8248;DHT22;4164;49.844;8.830;2023-12-28T11:56:06;11.50;1.00
8248;DHT22;4164;49.844;8.830;2023-12-28T11:58:35;11.40;1.00
8248;DHT22;4164;49.844;8.830;2023-12-28T12:01:01;11.40;1.00
8248;DHT22;4164;49.844;8.830;2023-12-28T12:03:27;11.30;1.00
8248;DHT22;4164;49.844;8.830;2023-12-28T12:05:55;11.40;1.00
8248;DHT22;4164;49.844;8.830;2023-12-28T12:08:25;11.30;1.00
8248;DHT22;4164;49.844;8.830;2023-12-28T12:11:09;11.20;1.00
8248;DHT22;4164;49.844;8.830;2023-12-28T12:13:35;11.00;1.00
8248;DHT22;4164;49.844;8.830;2023-12-28T12:16:01;11.10;1.00
8248;DHT22;4164;49.844;8.830;2023-12-28T12:18:31;11.20;1.00
8248;DHT22;4164;49.844;8.830;2023-12-28T12:20:57;11.10;1.00
8248;DHT22;4164;49.844;8.830;2023-12-28T12:23:23;10.90;1.00
8248;DHT22;4164;49.844;8.830;2023-12-28T12:25:52;11.10;1.00
8248;DHT22;4164;49.844;8.830;2023-12-28T12:28:18;11.10;1.00
8248;DHT22;4164;49.844;8.830;2023-12-28T12:30:54;11.50;1.00
8248;DHT22;4164;49.844;8.830;2023-12-28T12:33:22;12.50;1.00
8248;DHT22;4164;49.844;8.830;2023-12-28T12:35:48;13.10;1.00
8248;DHT22;4164;49.844;8.830;2023-12-28T12:38:14;13.30;1.00
8248;DHT22;4164;49.844;8.830;2023-12-28T12:40:39;13.20;1.00
8248;DHT22;4164;49.844;8.830;2023-12-28T12:43:08;12.60;1.00
8248;DHT22;4164;49.844;8.830;2023-12-28T12:45:35;11.90;1.00
8248;DHT22;4164;49.844;8.830;2023-12-28T12:48:02;11.60;1.00
8248;DHT22;4164;49.844;8.830;2023-12-28T12:50:28;11.70;1.00
8248;DHT22;4164;49.844;8.830;2023-12-28T12:52:59;11.90;1.00
8248;DHT22;4164;49.844;8.830;2023-12-28T12:55:24;11.60;1.00
8248;DHT22;4164;49.844;8.830;2023-12-28T12:57:50;11.60;1.00
8248;DHT22;4164;49.844;8.830;2023-12-28T13:00:16;11.30;1.00
8248;DHT22;4164;49.844;8.830;2023-12-28T13:02:42;11.40;1.00
8248;DHT22;4164;49.844;8.830;2023-12-28T13:05:09;11.20;1.00
8248;DHT22;4164;49.844;8.830;2023-12-28T13:07:36;11.30;1.00
8248;DHT22;4164;49.844;8.830;2023-12-28T13:10:02;11.20;1.00
8248;DHT22;4164;49.844;8.830;2023-12-28T13:12:28;11.10;1.00
8248;DHT22;4164;49.844;8.830;2023-12-28T13:14:56;10.90;1.00
8248;DHT22;4164;49.844;8.830;2023-12-28T13:17:24;10.80;1.00
8248;DHT22;4164;49.844;8.830;2023-12-28T13:19:50;10.70;1.00
8248;DHT22;4164;49.844;8.830;2023-12-28T13:22:18;10.60;1.00
8248;DHT22;4164;49.844;8.830;2023-12-28T13:24:44;10.60;1.00
8248;DHT22;4164;49.844;8.830;2023-12-28T13:27:09;10.70;1.00
8248;DHT22;4164;49.844;8.830;2023-12-28T13:29:36;10.60;1.00
8248;DHT22;4164;49.844;8.830;2023-12-28T13:32:01;10.50;1.00
8248;DHT22;4164;49.844;8.830;2023-12-28T13:34:27;10.40;1.00
8248;DHT22;4164;49.844;8.830;2023-12-28T13:36:54;10.40;1.00
8248;DHT22;4164;49.844;8.830;2023-12-28T13:39:19;10.50;1.00
8248;DHT22;4164;49.844;8.830;2023-12-28T13:41:45;10.40;1.00
8248;DHT22;4164;49.844;8.830;2023-12-28T13:44:11;10.40;1.00
8248;DHT22;4164;49.844;8.830;2023-12-28T13:46:38;10.40;1.00
8248;DHT22;4164;49.844;8.830;2023-12-28T13:49:04;10.30;1.00
8248;DHT22;4164;49.844;8.830;2023-12-28T13:51:30;10.30;1.00
8248;DHT22;4164;49.844;8.830;2023-12-28T13:53:56;10.20;1.00
8248;DHT22;4164;49.844;8.830;2023-12-28T13:56:21;10.20;1.00
8248;DHT22;4164;49.844;8.830;2023-12-28T13:58:47;10.10;1.00
8248;DHT22;4164;49.844;8.830;2023-12-28T14:01:12;10.10;1.00
8248;DHT22;4164;49.844;8.830;2023-12-28T14:03:38;10.00;1.00
8248;DHT22;4164;49.844;8.830;2023-12-28T14:06:04;9.90;1.00
8248;DHT22;4164;49.844;8.830;2023-12-28T14:08:30;9.90;1.00
8248;DHT22;4164;49.844;8.830;2023-12-28T14:10:56;9.90;1.00
8248;DHT22;4164;49.844;8.830;2023-12-28T14:13:21;9.90;1.00
8248;DHT22;4164;49.844;8.830;2023-12-28T14:15:47;10.00;1.00
8248;DHT22;4164;49.844;8.830;2023-12-28T14:18:13;10.00;1.00
8248;DHT22;4164;49.844;8.830;2023-12-28T14:20:38;10.00;1.00
8248;DHT22;4164;49.844;8.830;2023-12-28T14:23:04;10.00;1.00
8248;DHT22;4164;49.844;8.830;2023-12-28T14:25:30;10.00;1.00
8248;DHT22;4164;49.844;8.830;2023-12-28T14:27:56;10.00;1.00
8248;DHT22;4164;49.844;8.830;2023-12-28T14:30:22;10.00;1.00
8248;DHT22;4164;49.844;8.830;2023-12-28T14:32:48;10.00;1.00
8248;DHT22;4164;49.844;8.830;2023-12-28T14:35:14;10.00;1.00
8248;DHT22;4164;49.844;8.830;2023-12-28T14:37:46;9.90;1.00
8248;DHT22;4164;49.844;8.830;2023-12-28T14:40:12;9.90;1.00
8248;DHT22;4164;49.844;8.830;2023-12-28T14:42:38;9.80;1.00
8248;DHT22;4164;49.844;8.830;2023-12-28T14:45:04;9.80;1.00
8248;DHT22;4164;49.844;8.830;2023-12-28T14:47:30;9.90;1.00
8248;DHT22;4164;49.844;8.830;2023-12-28T14:49:56;10.00;1.00
8248;DHT22;4164;49.844;8.830;2023-12-28T14:52:22;9.80;1.00
8248;DHT22;4164;49.844;8.830;2023-12-28T14:54:49;9.70;1.00
8248;DHT22;4164;49.844;8.830;2023-12-28T14:57:18;9.70;1.00
8248;DHT22;4164;49.844;8.830;2023-12-28T14:59:44;9.70;1.00
8248;DHT22;4164;49.844;8.830;2023-12-28T15:02:09;9.70;1.00
8248;DHT22;4164;49.844;8.830;2023-12-28T15:04:35;9.80;1.00
8248;DHT22;4164;49.844;8.830;2023-12-28T15:07:08;9.70;1.00
8248;DHT22;4164;49.844;8.830;2023-12-28T15:09:34;9.60;1.00
8248;DHT22;4164;49.844;8.830;2023-12-28T15:11:59;9.60;1.00
8248;DHT22;4164;49.844;8.830;2023-12-28T15:14:26;9.60;1.00
8248;DHT22;4164;49.844;8.830;2023-12-28T15:16:51;9.60;1.00
8248;DHT22;4164;49.844;8.830;2023-12-28T15:19:17;9.50;1.00
8248;DHT22;4164;49.844;8.830;2023-12-28T15:21:43;9.50;1.00
8248;DHT22;4164;49.844;8.830;2023-12-28T15:24:09;9.40;1.00
8248;DHT22;4164;49.844;8.830;2023-12-28T15:26:35;9.40;1.00
8248;DHT22;4164;49.844;8.830;2023-12-28T15:29:01;9.40;1.00
8248;DHT22;4164;49.844;8.830;2023-12-28T15:31:27;9.30;1.00
8248;DHT22;4164;49.844;8.830;2023-12-28T15:33:52;9.30;1.00
8248;DHT22;4164;49.844;8.830;2023-12-28T15:36:18;9.30;1.00
8248;DHT22;4164;49.844;8.830;2023-12-28T15:38:43;9.30;1.00
8248;DHT22;4164;49.844;8.830;2023-12-28T15:41:09;9.40;1.00
8248;DHT22;4164;49.844;8.830;2023-12-28T15:43:35;9.40;1.00
8248;DHT22;4164;49.844;8.830;2023-12-28T15:46:00;9.30;1.00
8248;DHT22;4164;49.844;8.830;2023-12-28T15:48:26;9.30;1.00
8248;DHT22;4164;49.844;8.830;2023-12-28T15:50:51;9.20;1.00
8248;DHT22;4164;49.844;8.830;2023-12-28T15:53:17;9.20;1.00
8248;DHT22;4164;49.844;8.830;2023-12-28T15:55:42;9.20;1.00
8248;DHT22;4164;49.844;8.830;2023-12-28T15:58:08;9.20;1.00
8248;DHT22;4164;49.844;8.830;2023-12-28T16:00:34;9.10;1.00
8248;DHT22;4164;49.844;8.830;2023-12-28T16:02:59;9.10;1.00
8248;DHT22;4164;49.844;8.830;2023-12-28T16:05:25;9.10;1.00
8248;DHT22;4164;49.844;8.830;2023-12-28T16:07:50;9.10;1.00
8248;DHT22;4164;49.844;8.830;2023-12-28T16:10:16;9.20;1.00
8248;DHT22;4164;49.844;8.830;2023-12-28T16:12:41;9.10;1.00
8248;DHT22;4164;49.844;8.830;2023-12-28T16:15:07;9.10;1.00
8248;DHT22;4164;49.844;8.830;2023-12-28T16:17:33;9.00;1.00
8248;DHT22;4164;49.844;8.830;2023-12-28T16:19:59;9.10;1.00
8248;DHT22;4164;49.844;8.830;2023-12-28T16:22:25;9.10;1.00
8248;DHT22;4164;49.844;8.830;2023-12-28T16:24:50;9.10;1.00
8248;DHT22;4164;49.844;8.830;2023-12-28T16:27:16;9.10;1.00